Time;durP1;ratioP1;P1;durP2;ratioP2;P2;SDS_P1;SDS_P2;PMS_P1;PMS_P2;Temp;Humidity;BMP_temperature;BMP_pressure;BME280_temperature;BME280_humidity;BME280_pressure;Samples;Min_cycle;Max_cycle;Signal;HPM_P1;HPM_P2
2021/06/12 00:02:09;;;;;;;18.17;16.77;;;14.60;76.80;;;;;;5217146;28;20429;-76
2021/06/12 00:04:41;;;;;;;18.25;16.85;;;14.50;77.10;;;;;;5217895;28;20116;-74
2021/06/12 00:07:13;;;;;;;18.17;16.75;;;14.40;77.00;;;;;;5216330;28;20049;-75
2021/06/12 00:09:44;;;;;;;17.90;16.40;;;14.40;77.00;;;;;;5215976;28;20065;-75
2021/06/12 00:12:17;;;;;;;18.17;16.77;;;14.30;77.40;;;;;;5215201;28;20542;-76
2021/06/12 00:14:49;;;;;;;18.88;17.33;;;14.30;77.40;;;;;;5217488;28;20051;-75
2021/06/12 00:17:21;;;;;;;18.52;17.13;;;14.30;77.60;;;;;;5216673;28;20151;-75
2021/06/12 00:19:53;;;;;;;18.17;16.77;;;14.30;77.40;;;;;;5216883;28;20159;-75
2021/06/12 00:22:25;;;;;;;18.80;17.40;;;14.20;77.60;;;;;;5215445;28;20100;-75
2021/06/12 00:24:57;;;;;;;18.52;17.02;;;14.20;77.70;;;;;;5217125;28;20120;-75
2021/06/12 00:27:29;;;;;;;18.27;16.88;;;14.20;77.50;;;;;;5199930;28;20043;-75
2021/06/12 00:30:01;;;;;;;18.10;16.70;;;14.20;77.30;;;;;;5205700;28;20099;-75
2021/06/12 00:32:33;;;;;;;18.17;16.58;;;14.30;77.40;;;;;;5198111;28;20049;-78
2021/06/12 00:35:07;;;;;;;18.60;17.10;;;14.20;77.20;;;;;;5216787;28;20060;-80
2021/06/12 00:37:40;;;;;;;18.27;16.88;;;14.20;77.20;;;;;;5183476;28;20084;-75
2021/06/12 00:40:15;;;;;;;19.05;17.55;;;14.20;77.40;;;;;;5217211;28;20087;-76
2021/06/12 00:42:47;;;;;;;18.38;16.95;;;14.10;77.40;;;;;;5216068;28;20091;-75
2021/06/12 00:45:23;;;;;;;17.77;16.45;;;14.10;77.60;;;;;;5215992;28;20048;-76
2021/06/12 00:47:55;;;;;;;18.52;16.98;;;14.10;78.00;;;;;;5216559;28;20041;-75
2021/06/12 00:50:32;;;;;;;18.60;17.00;;;14.10;77.90;;;;;;5199195;28;20119;-77
2021/06/12 00:53:03;;;;;;;18.58;17.08;;;14.10;77.90;;;;;;5216356;28;20106;-76
2021/06/12 00:55:36;;;;;;;18.85;17.25;;;14.00;78.50;;;;;;5215589;28;20132;-76
2021/06/12 00:58:10;;;;;;;18.55;17.00;;;14.00;78.50;;;;;;5190799;28;20140;-76
2021/06/12 01:00:42;;;;;;;18.50;17.10;;;13.90;78.90;;;;;;5198391;28;20178;-75
2021/06/12 01:03:14;;;;;;;18.52;17.00;;;13.90;78.60;;;;;;5182025;28;20091;-77
2021/06/12 01:05:46;;;;;;;17.83;16.52;;;13.90;78.40;;;;;;5217256;28;20041;-77
2021/06/12 01:08:18;;;;;;;18.77;17.38;;;13.90;78.40;;;;;;5216636;28;20059;-77
2021/06/12 01:10:50;;;;;;;18.67;17.20;;;13.90;78.50;;;;;;5214648;28;20041;-77
2021/06/12 01:13:48;;;;;;;19.75;18.10;;;13.80;78.60;;;;;;5197944;28;20095;-75
2021/06/12 01:16:30;;;;;;;19.35;17.95;;;13.90;78.50;;;;;;5215468;28;20073;-76
2021/06/12 01:19:28;;;;;;;18.85;17.45;;;13.90;78.40;;;;;;5215393;28;20455;-75
2021/06/12 01:22:05;;;;;;;18.35;16.95;;;13.90;78.70;;;;;;5215362;28;20080;-76
2021/06/12 01:24:56;;;;;;;18.58;17.10;;;13.90;78.40;;;;;;5191894;28;20459;-75
2021/06/12 01:27:33;;;;;;;17.73;16.42;;;13.90;78.40;;;;;;5216480;28;20114;-75
2021/06/12 01:30:23;;;;;;;18.23;16.73;;;13.90;78.60;;;;;;5215703;28;20677;-76
2021/06/12 01:33:00;;;;;;;18.65;17.15;;;13.90;78.70;;;;;;5214808;28;20540;-77
2021/06/12 01:35:34;;;;;;;18.98;17.48;;;13.90;78.80;;;;;;5215568;28;20044;-78
2021/06/12 01:38:10;;;;;;;18.10;16.58;;;13.80;78.50;;;;;;5216260;28;20099;-78
2021/06/12 01:40:45;;;;;;;19.05;17.55;;;13.90;78.00;;;;;;5216234;28;20079;-78
2021/06/12 01:43:18;;;;;;;18.10;16.70;;;13.90;78.50;;;;;;5216385;28;20119;-77
2021/06/12 01:45:51;;;;;;;18.67;17.13;;;13.80;78.30;;;;;;5215037;28;20644;-77
2021/06/12 01:48:23;;;;;;;18.33;16.92;;;13.80;78.50;;;;;;5216311;28;20037;-76
2021/06/12 01:50:58;;;;;;;18.48;16.88;;;13.70;78.90;;;;;;5216267;28;20119;-77
2021/06/12 01:53:32;;;;;;;19.00;17.40;;;13.70;79.00;;;;;;5216103;28;20535;-76
2021/06/12 01:56:06;;;;;;;19.55;18.05;;;13.60;79.20;;;;;;5213685;28;20128;-75
2021/06/12 01:58:42;;;;;;;18.83;17.23;;;13.60;79.40;;;;;;5216433;28;20180;-74
2021/06/12 02:01:16;;;;;;;19.27;17.58;;;13.60;79.30;;;;;;5196698;28;20049;-74
2021/06/12 02:03:50;;;;;;;18.95;17.45;;;13.60;79.50;;;;;;5216607;28;20049;-74
2021/06/12 02:06:24;;;;;;;19.30;17.70;;;13.50;79.60;;;;;;5198271;28;20033;-75
2021/06/12 02:08:56;;;;;;;19.83;18.33;;;13.50;80.40;;;;;;5197422;28;20660;-74
2021/06/12 02:11:28;;;;;;;18.58;17.17;;;13.50;79.10;;;;;;5213170;28;20041;-75
2021/06/12 02:14:00;;;;;;;19.35;17.85;;;13.50;79.10;;;;;;5216131;28;20126;-75
2021/06/12 02:16:32;;;;;;;19.13;17.63;;;13.50;79.70;;;;;;5215002;28;20127;-74
2021/06/12 02:19:06;;;;;;;18.58;17.00;;;13.40;79.40;;;;;;5198171;28;20060;-74
2021/06/12 02:21:39;;;;;;;19.40;17.80;;;13.40;79.50;;;;;;5214632;28;20455;-76
2021/06/12 02:24:13;;;;;;;19.88;18.30;;;13.40;79.70;;;;;;5216537;28;20084;-75
2021/06/12 02:26:48;;;;;;;19.33;17.90;;;13.40;79.30;;;;;;5214443;28;20488;-75
2021/06/12 02:29:21;;;;;;;19.17;17.58;;;13.30;79.20;;;;;;5215234;28;20468;-75
2021/06/12 02:32:02;;;;;;;19.50;17.88;;;13.30;79.20;;;;;;5213641;28;20607;-77
2021/06/12 02:34:38;;;;;;;19.70;18.00;;;13.30;78.70;;;;;;5198367;28;20055;-77
2021/06/12 02:37:10;;;;;;;20.05;18.42;;;13.30;79.70;;;;;;5197242;28;20824;-77
2021/06/12 02:39:42;;;;;;;19.23;17.75;;;13.30;79.50;;;;;;5214042;28;20049;-76
2021/06/12 02:42:14;;;;;;;19.50;18.00;;;13.30;79.20;;;;;;5214803;28;20069;-76
2021/06/12 02:44:46;;;;;;;19.42;17.98;;;13.30;78.70;;;;;;5200799;28;20365;-76
2021/06/12 02:47:20;;;;;;;18.50;16.80;;;13.30;78.70;;;;;;5217905;28;20431;-77
2021/06/12 02:49:56;;;;;;;19.55;18.05;;;13.30;78.90;;;;;;5218873;28;20516;-76
2021/06/12 02:52:31;;;;;;;19.13;17.52;;;13.30;79.30;;;;;;5217180;28;20041;-76
2021/06/12 02:55:07;;;;;;;19.20;17.70;;;13.20;79.70;;;;;;5220096;28;20080;-77
2021/06/12 02:57:43;;;;;;;18.90;17.48;;;13.10;80.20;;;;;;5201378;28;20118;-77
2021/06/12 03:00:18;;;;;;;18.27;16.77;;;13.10;80.50;;;;;;5217099;28;21666;-77
2021/06/12 03:02:52;;;;;;;19.65;18.05;;;13.10;80.70;;;;;;5218786;28;20041;-77
2021/06/12 03:05:26;;;;;;;18.35;16.95;;;13.10;80.70;;;;;;5217621;28;20048;-77
2021/06/12 03:08:00;;;;;;;18.05;16.65;;;13.10;80.60;;;;;;5219711;28;20048;-76
2021/06/12 03:10:35;;;;;;;18.45;17.05;;;13.10;80.40;;;;;;5219358;28;20120;-77
2021/06/12 03:13:13;;;;;;;18.50;17.10;;;13.20;80.30;;;;;;5218812;28;20124;-77
2021/06/12 03:15:47;;;;;;;17.92;16.52;;;13.10;80.20;;;;;;5218795;28;20072;-77
2021/06/12 03:18:19;;;;;;;18.60;17.10;;;13.10;79.50;;;;;;5219349;28;20037;-77
2021/06/12 03:20:57;;;;;;;18.05;16.55;;;13.20;79.20;;;;;;5199497;28;20065;-77
2021/06/12 03:23:30;;;;;;;18.80;17.30;;;13.10;79.10;;;;;;5218330;28;20124;-76
2021/06/12 03:26:02;;;;;;;18.05;16.65;;;13.20;79.60;;;;;;5216429;28;20092;-77
2021/06/12 03:28:35;;;;;;;17.60;16.20;;;13.20;79.90;;;;;;5218773;28;20037;-77
2021/06/12 03:31:08;;;;;;;18.00;16.52;;;13.20;80.00;;;;;;5216593;28;20661;-76
2021/06/12 03:33:40;;;;;;;17.80;16.50;;;13.10;80.40;;;;;;5197783;28;20059;-76
2021/06/12 03:36:13;;;;;;;17.92;16.45;;;13.10;80.60;;;;;;5217113;28;20516;-77
2021/06/12 03:38:45;;;;;;;17.73;16.33;;;13.10;80.40;;;;;;5217002;28;20115;-76
2021/06/12 03:41:18;;;;;;;17.83;16.42;;;13.20;80.30;;;;;;5214838;28;20126;-76
2021/06/12 03:43:50;;;;;;;18.52;16.92;;;13.20;80.10;;;;;;5216602;28;20511;-76
2021/06/12 03:46:24;;;;;;;18.08;16.67;;;13.20;80.20;;;;;;5199089;28;20053;-75
2021/06/12 03:48:56;;;;;;;17.33;15.85;;;13.20;80.30;;;;;;5215371;28;20389;-75
2021/06/12 03:51:28;;;;;;;17.50;16.00;;;13.20;80.70;;;;;;5216353;28;20071;-75
2021/06/12 03:54:07;;;;;;;17.23;15.90;;;13.10;81.30;;;;;;5215903;28;20552;-75
2021/06/12 03:56:39;;;;;;;17.67;16.27;;;13.10;81.60;;;;;;5216421;28;20072;-75
2021/06/12 03:59:15;;;;;;;18.58;17.17;;;13.10;81.50;;;;;;5215622;28;20041;-75
2021/06/12 04:01:48;;;;;;;18.77;17.27;;;13.20;80.90;;;;;;5217008;28;20045;-77
2021/06/12 04:04:21;;;;;;;18.55;17.05;;;13.20;80.60;;;;;;5181750;28;20148;-76
2021/06/12 04:06:54;;;;;;;19.10;17.60;;;13.20;80.50;;;;;;5216964;28;20045;-75
2021/06/12 04:09:25;;;;;;;18.88;17.35;;;13.20;80.30;;;;;;5216860;28;20037;-75
2021/06/12 04:11:57;;;;;;;17.80;16.50;;;13.20;80.60;;;;;;5215466;28;20045;-75
2021/06/12 04:14:29;;;;;;;18.55;17.05;;;13.30;81.00;;;;;;5217976;28;20037;-75
2021/06/12 04:17:03;;;;;;;18.92;17.15;;;13.30;81.30;;;;;;5218068;28;21015;-77
2021/06/12 04:19:38;;;;;;;18.35;16.95;;;13.20;81.30;;;;;;5216624;28;20524;-76
2021/06/12 04:22:10;;;;;;;18.55;17.05;;;13.30;81.50;;;;;;5214583;28;20331;-77
2021/06/12 04:24:42;;;;;;;18.83;17.25;;;13.30;81.50;;;;;;5212648;28;20133;-77
2021/06/12 04:27:14;;;;;;;18.42;16.92;;;13.40;81.50;;;;;;5216362;28;20072;-76
2021/06/12 04:29:46;;;;;;;18.33;16.92;;;13.50;81.30;;;;;;5216448;28;20056;-76
2021/06/12 04:32:18;;;;;;;19.08;17.60;;;13.60;81.20;;;;;;5214748;28;20041;-76
2021/06/12 04:34:50;;;;;;;18.48;16.98;;;13.70;81.30;;;;;;5199314;28;20045;-75
2021/06/12 04:37:22;;;;;;;19.27;17.77;;;13.90;81.20;;;;;;5195458;28;20471;-76
2021/06/12 04:39:54;;;;;;;18.65;17.25;;;14.00;81.30;;;;;;5215878;28;20087;-76
2021/06/12 04:42:26;;;;;;;18.92;17.42;;;14.10;80.80;;;;;;5215194;28;20327;-77
2021/06/12 04:44:58;;;;;;;19.67;17.98;;;14.20;80.50;;;;;;5198618;28;20048;-75
2021/06/12 04:47:30;;;;;;;18.80;17.30;;;14.30;80.40;;;;;;5216589;28;20068;-76
2021/06/12 04:50:04;;;;;;;19.00;17.33;;;14.40;80.10;;;;;;5215302;28;20044;-74
2021/06/12 04:52:37;;;;;;;19.25;17.75;;;14.50;80.20;;;;;;5197026;28;20095;-77
2021/06/12 04:55:11;;;;;;;19.02;17.55;;;14.50;80.50;;;;;;5215194;28;20040;-75
2021/06/12 04:57:42;;;;;;;18.90;17.45;;;14.60;80.40;;;;;;5216703;28;20053;-75
2021/06/12 05:00:15;;;;;;;19.23;17.73;;;14.70;80.00;;;;;;5216313;28;20048;-75
2021/06/12 05:02:47;;;;;;;18.75;17.35;;;14.80;79.80;;;;;;5213924;28;20086;-76
2021/06/12 05:05:19;;;;;;;19.52;18.02;;;15.00;79.30;;;;;;5216431;28;20139;-76
2021/06/12 05:07:51;;;;;;;19.27;17.67;;;15.10;78.50;;;;;;5213578;28;20037;-76
2021/06/12 05:10:27;;;;;;;19.73;18.23;;;15.20;78.30;;;;;;5215709;28;20061;-76
2021/06/12 05:12:59;;;;;;;19.83;18.33;;;15.30;79.40;;;;;;5216344;28;20727;-76
2021/06/12 05:15:32;;;;;;;19.88;18.35;;;15.40;79.30;;;;;;5215534;28;20053;-75
2021/06/12 05:18:06;;;;;;;20.20;18.67;;;15.60;79.50;;;;;;5215245;28;20041;-77
2021/06/12 05:20:38;;;;;;;20.30;18.70;;;15.60;79.30;;;;;;5206961;28;20052;-76
2021/06/12 05:23:10;;;;;;;20.65;19.05;;;15.80;79.40;;;;;;5215416;28;20159;-77
2021/06/12 05:25:42;;;;;;;20.52;18.83;;;15.80;79.70;;;;;;5216841;28;20041;-77
2021/06/12 05:28:14;;;;;;;19.60;18.10;;;15.90;78.60;;;;;;5198885;28;20033;-77
2021/06/12 05:30:46;;;;;;;19.98;18.48;;;15.90;78.70;;;;;;5211878;28;20087;-77
2021/06/12 05:33:18;;;;;;;20.15;18.55;;;16.10;78.40;;;;;;5214880;28;20182;-77
2021/06/12 05:35:51;;;;;;;20.48;18.88;;;16.20;78.50;;;;;;5216057;28;20103;-77
2021/06/12 05:38:23;;;;;;;20.08;18.48;;;16.30;78.30;;;;;;5199016;28;20049;-76
2021/06/12 05:40:55;;;;;;;20.27;18.67;;;16.50;77.90;;;;;;5213277;28;20139;-76
2021/06/12 05:43:27;;;;;;;20.30;18.80;;;16.60;76.80;;;;;;5215240;28;20068;-77
2021/06/12 05:45:59;;;;;;;19.63;18.13;;;16.60;76.60;;;;;;5215192;28;20041;-77
2021/06/12 05:48:31;;;;;;;19.50;18.00;;;16.80;75.80;;;;;;5214819;28;20068;-78
2021/06/12 05:51:03;;;;;;;20.35;18.65;;;16.80;75.50;;;;;;5194919;28;20095;-76
2021/06/12 05:53:35;;;;;;;20.73;18.98;;;16.90;74.70;;;;;;5214637;28;20041;-78
2021/06/12 05:56:07;;;;;;;20.67;19.17;;;17.00;75.40;;;;;;5215827;28;20073;-78
2021/06/12 05:58:39;;;;;;;20.42;18.73;;;17.20;75.60;;;;;;5216469;28;20120;-79
2021/06/12 06:01:12;;;;;;;20.17;18.52;;;17.30;74.30;;;;;;5180700;28;20041;-78
2021/06/12 06:03:44;;;;;;;19.70;18.20;;;17.40;74.70;;;;;;5214925;28;20025;-78
2021/06/12 06:06:16;;;;;;;19.75;18.25;;;17.60;74.80;;;;;;5181142;28;20095;-82
2021/06/12 06:08:48;;;;;;;19.88;18.38;;;17.70;74.80;;;;;;5216945;28;20091;-81
2021/06/12 06:11:20;;;;;;;20.58;18.88;;;17.90;72.50;;;;;;5197089;28;20049;-79
2021/06/12 06:13:52;;;;;;;20.02;18.52;;;18.00;73.50;;;;;;5215975;28;20132;-79
2021/06/12 06:16:24;;;;;;;20.35;18.85;;;18.10;74.00;;;;;;5214527;28;20483;-76
2021/06/12 06:18:56;;;;;;;19.70;18.30;;;18.20;72.90;;;;;;5216744;28;20092;-77
2021/06/12 06:21:28;;;;;;;19.98;18.48;;;18.30;72.60;;;;;;5184223;28;20045;-76
2021/06/12 06:24:00;;;;;;;19.52;18.13;;;18.40;71.60;;;;;;5221240;28;20060;-78
2021/06/12 06:26:32;;;;;;;20.15;18.65;;;18.50;72.50;;;;;;5218851;28;20067;-77
2021/06/12 06:29:04;;;;;;;19.25;17.85;;;18.70;69.70;;;;;;5218394;28;20377;-76
2021/06/12 06:31:37;;;;;;;20.60;19.05;;;18.80;70.30;;;;;;5217046;28;20072;-77
2021/06/12 06:34:09;;;;;;;19.45;18.05;;;18.80;70.30;;;;;;5218338;28;20823;-77
2021/06/12 06:36:41;;;;;;;20.50;18.80;;;19.00;67.90;;;;;;5215809;28;20503;-77
2021/06/12 06:39:13;;;;;;;20.27;18.77;;;19.10;69.10;;;;;;5217985;28;20119;-78
2021/06/12 06:41:45;;;;;;;19.95;18.48;;;19.20;68.70;;;;;;5215059;28;20044;-79
2021/06/12 06:44:17;;;;;;;20.02;18.48;;;19.30;65.50;;;;;;5201396;28;20041;-78
2021/06/12 06:46:49;;;;;;;20.52;18.75;;;19.40;68.90;;;;;;5201157;28;20048;-79
2021/06/12 06:49:22;;;;;;;18.63;17.23;;;19.50;65.20;;;;;;5201136;28;20128;-79
2021/06/12 06:51:54;;;;;;;19.05;17.65;;;19.60;65.40;;;;;;5218296;28;20102;-78
2021/06/12 06:54:26;;;;;;;19.35;17.95;;;19.70;68.30;;;;;;5200469;28;20048;-77
2021/06/12 06:56:59;;;;;;;19.63;17.98;;;19.80;66.70;;;;;;5218790;28;20055;-78
2021/06/12 06:59:33;;;;;;;19.90;18.23;;;19.80;65.40;;;;;;5216904;28;20048;-78
2021/06/12 07:02:05;;;;;;;19.08;17.63;;;19.90;65.30;;;;;;5216488;28;20053;-79
2021/06/12 07:04:38;;;;;;;25.02;17.55;;;20.10;63.70;;;;;;5218070;28;20033;-79
2021/06/12 07:07:10;;;;;;;19.25;17.75;;;20.10;65.70;;;;;;5212024;28;20048;-78
2021/06/12 07:09:42;;;;;;;18.92;17.42;;;20.00;63.70;;;;;;5217047;28;20633;-78
2021/06/12 07:12:14;;;;;;;20.02;18.30;;;20.10;62.50;;;;;;5216789;28;20095;-76
2021/06/12 07:14:46;;;;;;;19.30;17.70;;;20.10;65.50;;;;;;5218698;28;20045;-77
2021/06/12 07:17:18;;;;;;;19.30;17.80;;;20.20;63.60;;;;;;5217813;28;20045;-76
2021/06/12 07:19:50;;;;;;;20.00;18.38;;;20.20;62.60;;;;;;5219634;28;20404;-78
2021/06/12 07:22:22;;;;;;;18.88;17.38;;;20.20;64.40;;;;;;5216826;28;20106;-77
2021/06/12 07:24:55;;;;;;;19.20;17.80;;;20.20;64.50;;;;;;5200149;28;20040;-77
2021/06/12 07:27:27;;;;;;;20.23;18.60;;;20.40;65.00;;;;;;5217304;28;20048;-78
2021/06/12 07:29:59;;;;;;;19.63;18.02;;;20.50;64.80;;;;;;5216733;28;20045;-76
2021/06/12 07:32:31;;;;;;;20.45;18.83;;;20.60;67.10;;;;;;5216995;28;20100;-77
2021/06/12 07:35:03;;;;;;;19.55;18.05;;;20.80;66.90;;;;;;5198415;28;20064;-81
2021/06/12 07:37:35;;;;;;;19.20;17.80;;;20.80;62.50;;;;;;5218983;28;20083;-76
2021/06/12 07:40:07;;;;;;;19.83;18.33;;;20.90;64.20;;;;;;5215272;28;20136;-76
2021/06/12 07:42:39;;;;;;;19.70;18.20;;;21.10;62.80;;;;;;5195621;28;20049;-76
2021/06/12 07:45:11;;;;;;;20.17;18.73;;;21.20;59.40;;;;;;5215394;28;20125;-76
2021/06/12 07:47:43;;;;;;;21.15;19.52;;;21.30;61.00;;;;;;5214718;28;20035;-77
2021/06/12 07:50:17;;;;;;;20.02;18.58;;;21.50;62.90;;;;;;5215244;28;20072;-76
2021/06/12 07:52:49;;;;;;;19.83;18.33;;;21.60;61.30;;;;;;5214269;28;20121;-77
2021/06/12 07:55:21;;;;;;;20.27;18.80;;;21.70;61.10;;;;;;5214471;28;20037;-76
2021/06/12 07:57:53;;;;;;;20.77;18.67;;;21.80;60.30;;;;;;5216384;28;20102;-77
2021/06/12 08:00:25;;;;;;;20.23;18.73;;;21.90;60.70;;;;;;5216668;28;20065;-77
2021/06/12 08:02:58;;;;;;;20.60;18.98;;;22.00;61.40;;;;;;5214300;28;20044;-77
2021/06/12 08:05:31;;;;;;;20.50;18.90;;;22.00;61.00;;;;;;5216147;28;20037;-79
2021/06/12 08:08:03;;;;;;;20.55;19.10;;;22.00;60.40;;;;;;5218101;28;20072;-77
2021/06/12 08:10:35;;;;;;;20.48;18.98;;;22.00;59.40;;;;;;5217666;28;20076;-77
2021/06/12 08:13:07;;;;;;;20.85;19.35;;;21.90;55.50;;;;;;5199864;28;20098;-77
2021/06/12 08:15:40;;;;;;;20.48;18.77;;;22.00;57.80;;;;;;5216267;28;20052;-77
2021/06/12 08:18:12;;;;;;;20.30;18.80;;;22.20;56.50;;;;;;5219402;28;20474;-77
2021/06/12 08:20:44;;;;;;;20.20;18.70;;;22.40;55.70;;;;;;5219378;28;20140;-76
2021/06/12 08:23:16;;;;;;;20.88;19.27;;;22.50;54.70;;;;;;5217444;28;20041;-77
2021/06/12 08:25:48;;;;;;;20.70;19.08;;;22.70;56.70;;;;;;5216924;28;20040;-77
2021/06/12 08:28:20;;;;;;;21.30;19.60;;;22.80;60.00;;;;;;5219644;28;20033;-77
2021/06/12 08:30:52;;;;;;;21.60;19.90;;;23.00;54.60;;;;;;5200922;28;20045;-77
2021/06/12 08:33:25;;;;;;;21.25;19.55;;;23.00;51.30;;;;;;5209398;28;20067;-77
2021/06/12 08:35:57;;;;;;;20.98;19.38;;;23.00;52.00;;;;;;5217865;28;20048;-76
2021/06/12 08:38:29;;;;;;;21.65;19.85;;;23.00;51.80;;;;;;5218333;28;20123;-76
2021/06/12 08:41:01;;;;;;;20.85;19.35;;;23.10;50.30;;;;;;5216470;28;20073;-76
2021/06/12 08:43:34;;;;;;;21.40;19.85;;;23.20;49.60;;;;;;5215310;28;20064;-76
2021/06/12 08:46:17;;;;;;;21.02;19.52;;;23.40;56.70;;;;;;5216948;28;20056;-77
2021/06/12 08:48:50;;;;;;;21.13;19.60;;;23.50;50.90;;;;;;5217259;28;20464;-77
2021/06/12 08:51:22;;;;;;;21.30;19.70;;;23.60;55.00;;;;;;5217600;28;20445;-76
2021/06/12 08:53:54;;;;;;;21.13;19.45;;;23.70;55.40;;;;;;5219170;28;20123;-77
2021/06/12 08:56:26;;;;;;;21.15;19.65;;;23.80;52.90;;;;;;5217527;28;20165;-77
2021/06/12 08:58:58;;;;;;;22.15;20.27;;;23.80;52.10;;;;;;5216743;28;20049;-77
2021/06/12 09:01:30;;;;;;;21.40;19.80;;;24.00;52.70;;;;;;5215898;28;20161;-77
2021/06/12 09:04:03;;;;;;;21.42;19.83;;;24.10;55.50;;;;;;5216421;28;20563;-76
2021/06/12 09:06:35;;;;;;;21.40;19.80;;;24.20;54.70;;;;;;5200198;28;20111;-75
2021/06/12 09:09:07;;;;;;;21.08;19.58;;;24.20;54.10;;;;;;5218462;28;20067;-77
2021/06/12 09:11:39;;;;;;;21.38;19.77;;;24.20;50.80;;;;;;5197716;28;20094;-76
2021/06/12 09:14:11;;;;;;;21.63;20.02;;;24.30;51.80;;;;;;5199701;28;20163;-76
2021/06/12 09:16:43;;;;;;;21.83;20.10;;;24.40;49.30;;;;;;5217404;28;20520;-77
2021/06/12 09:19:23;;;;;;;21.65;20.05;;;24.60;51.10;;;;;;5217525;28;20068;-77
2021/06/12 09:22:00;;;;;;;21.35;19.65;;;24.70;50.90;;;;;;5216327;28;20045;-77
2021/06/12 09:24:42;;;;;;;21.45;19.75;;;24.70;50.90;;;;;;5217593;28;20064;-76
2021/06/12 09:27:17;;;;;;;21.42;19.83;;;24.70;50.80;;;;;;5217172;28;20516;-75
2021/06/12 09:29:52;;;;;;;21.05;19.52;;;24.60;50.10;;;;;;5217922;28;20029;-76
2021/06/12 09:32:32;;;;;;;21.50;19.80;;;24.40;51.60;;;;;;5215151;28;20531;-76
2021/06/12 09:35:08;;;;;;;20.48;18.88;;;24.50;52.70;;;;;;5218567;28;20102;-76
2021/06/12 09:37:40;;;;;;;21.05;19.55;;;24.50;48.80;;;;;;5218239;28;20091;-77
2021/06/12 09:40:15;;;;;;;21.17;19.45;;;24.60;51.00;;;;;;5217220;28;20129;-76
2021/06/12 09:42:55;;;;;;;20.55;19.02;;;24.60;50.80;;;;;;5215810;28;20045;-76
2021/06/12 09:45:29;;;;;;;20.58;18.92;;;24.60;48.30;;;;;;5199811;28;20675;-76
2021/06/12 09:48:11;;;;;;;20.52;18.83;;;24.60;50.80;;;;;;5216291;28;20079;-76
2021/06/12 09:50:45;;;;;;;20.90;19.27;;;24.60;49.00;;;;;;5217791;28;20051;-76
2021/06/12 09:53:20;;;;;;;21.10;19.50;;;24.60;51.70;;;;;;5217706;28;20512;-75
2021/06/12 09:55:52;;;;;;;20.92;19.42;;;24.70;50.20;;;;;;5221257;28;20104;-76
2021/06/12 09:58:28;;;;;;;20.80;19.30;;;24.90;50.30;;;;;;5221795;28;20133;-76
2021/06/12 10:01:10;;;;;;;21.00;19.50;;;25.00;50.50;;;;;;5220912;28;20064;-75
2021/06/12 10:03:43;;;;;;;21.20;19.60;;;25.10;50.30;;;;;;5220760;28;20040;-77
2021/06/12 10:06:16;;;;;;;21.10;19.50;;;25.20;49.70;;;;;;5218787;28;20040;-76
2021/06/12 10:08:51;;;;;;;22.15;20.38;;;25.20;50.10;;;;;;5221271;28;20045;-75
2021/06/12 10:11:30;;;;;;;20.88;19.38;;;25.20;47.30;;;;;;5219311;28;20124;-76
2021/06/12 10:14:04;;;;;;;21.33;19.67;;;25.00;48.70;;;;;;5221468;28;20106;-77
2021/06/12 10:16:39;;;;;;;20.75;19.15;;;25.20;46.90;;;;;;5220077;28;20068;-78
2021/06/12 10:19:16;;;;;;;21.05;19.38;;;25.30;48.50;;;;;;5203138;28;20052;-76
2021/06/12 10:21:48;;;;;;;20.35;18.95;;;25.10;48.10;;;;;;5201517;28;20047;-77
2021/06/12 10:24:22;;;;;;;20.98;19.33;;;25.10;48.60;;;;;;5220833;28;20787;-76
2021/06/12 10:26:56;;;;;;;20.65;19.15;;;25.00;48.80;;;;;;5217192;28;20045;-76
2021/06/12 10:29:28;;;;;;;20.27;18.88;;;25.10;50.30;;;;;;5221341;28;20130;-76
2021/06/12 10:32:01;;;;;;;20.77;19.27;;;25.20;50.10;;;;;;5201125;28;20039;-76
2021/06/12 10:34:34;;;;;;;20.98;19.48;;;25.20;47.60;;;;;;5187630;28;20062;-76
2021/06/12 10:37:08;;;;;;;20.75;19.15;;;25.20;48.70;;;;;;5219341;28;20106;-76
2021/06/12 10:39:41;;;;;;;20.75;19.15;;;25.10;49.30;;;;;;5203189;28;20052;-74
2021/06/12 10:42:25;;;;;;;20.15;18.67;;;24.90;45.40;;;;;;5218600;28;20556;-76
2021/06/12 10:44:57;;;;;;;19.80;18.35;;;24.90;46.80;;;;;;5197515;28;20120;-76
2021/06/12 10:47:46;;;;;;;20.40;18.83;;;24.70;44.50;;;;;;5219118;28;20052;-77
2021/06/12 10:50:27;;;;;;;19.95;18.45;;;24.60;45.10;;;;;;5186583;28;20037;-76
2021/06/12 10:53:20;;;;;;;19.48;18.08;;;24.60;46.20;;;;;;5219448;28;20037;-77
2021/06/12 10:55:54;;;;;;;19.95;18.55;;;24.60;46.20;;;;;;5219499;28;20431;-76
2021/06/12 10:58:36;;;;;;;20.20;18.70;;;24.70;48.50;;;;;;5221229;28;20041;-76
2021/06/12 11:01:21;;;;;;;20.35;18.85;;;24.80;46.20;;;;;;5218783;28;20053;-76
2021/06/12 11:07:00;;;;;;;19.88;18.48;;;25.10;47.80;;;;;;5218905;28;20099;-76
2021/06/12 11:09:37;;;;;;;20.58;19.08;;;25.20;45.70;;;;;;5196272;28;20140;-76
2021/06/12 11:12:15;;;;;;;20.58;19.13;;;25.30;44.90;;;;;;5219073;28;20065;-76
2021/06/12 11:14:59;;;;;;;19.90;18.40;;;25.20;42.90;;;;;;5219204;28;20125;-76
2021/06/12 11:17:31;;;;;;;20.77;19.23;;;25.40;44.70;;;;;;5218289;28;20581;-76
2021/06/12 11:20:06;;;;;;;20.02;18.63;;;25.60;45.50;;;;;;5219027;28;20063;-75
2021/06/12 11:22:52;;;;;;;20.10;18.60;;;25.60;44.60;;;;;;5192275;28;20115;-76
2021/06/12 11:25:28;;;;;;;20.45;18.95;;;25.60;43.20;;;;;;5201656;28;20045;-76
2021/06/12 11:28:20;;;;;;;20.20;18.70;;;25.60;43.80;;;;;;5219938;28;20045;-76
2021/06/12 11:31:13;;;;;;;20.17;18.67;;;25.60;43.90;;;;;;5218274;28;20413;-77
2021/06/12 11:34:09;;;;;;;20.80;19.20;;;25.80;46.70;;;;;;5219090;28;20045;-76
2021/06/12 11:36:42;;;;;;;20.90;19.30;;;25.90;42.70;;;;;;5219419;28;20040;-76
2021/06/12 11:39:14;;;;;;;20.63;19.13;;;25.90;42.30;;;;;;5220433;28;20053;-76
2021/06/12 11:41:46;;;;;;;21.02;19.52;;;26.10;43.30;;;;;;5218931;28;20045;-76
2021/06/12 11:44:25;;;;;;;20.92;19.42;;;26.30;43.30;;;;;;5219131;28;20060;-75
2021/06/12 11:46:57;;;;;;;20.70;19.20;;;26.60;44.30;;;;;;5217970;28;20065;-75
2021/06/12 11:49:29;;;;;;;20.60;19.10;;;26.80;44.20;;;;;;5200934;28;20157;-76
2021/06/12 11:52:00;;;;;;;21.05;19.45;;;26.90;34.90;;;;;;5218587;28;20706;-76
2021/06/12 11:54:32;;;;;;;20.02;18.50;;;26.90;39.00;;;;;;5199563;28;20114;-75
2021/06/12 11:57:07;;;;;;;20.20;18.65;;;27.00;35.90;;;;;;5217088;28;20041;-75
2021/06/12 11:59:40;;;;;;;20.10;18.70;;;27.00;36.30;;;;;;5218702;28;20507;-76
2021/06/12 12:02:12;;;;;;;20.42;18.92;;;27.00;37.50;;;;;;5200068;28;20152;-77
2021/06/12 12:04:49;;;;;;;20.70;19.10;;;27.20;38.90;;;;;;5218277;28;20036;-75
2021/06/12 12:07:21;;;;;;;20.40;18.90;;;27.20;37.50;;;;;;5209072;28;20107;-76
2021/06/12 12:09:54;;;;;;;21.50;19.60;;;27.20;40.30;;;;;;5218057;28;20120;-74
2021/06/12 12:12:33;;;;;;;20.25;18.75;;;27.30;38.70;;;;;;5217939;28;20500;-72
2021/06/12 12:15:07;;;;;;;20.75;19.25;;;27.10;39.20;;;;;;5216688;28;20052;-73
2021/06/12 12:17:39;;;;;;;20.38;18.88;;;27.10;40.30;;;;;;5218046;28;20049;-75
2021/06/12 12:20:12;;;;;;;20.92;19.33;;;27.10;41.20;;;;;;5217630;28;20052;-75
2021/06/12 12:22:48;;;;;;;20.30;18.80;;;27.10;39.70;;;;;;5217647;28;20519;-76
2021/06/12 12:25:33;;;;;;;19.80;18.40;;;27.10;38.80;;;;;;5215598;28;20103;-76
2021/06/12 12:28:18;;;;;;;20.58;19.08;;;27.30;40.40;;;;;;5192249;28;20090;-75
2021/06/12 12:30:50;;;;;;;20.45;18.95;;;27.50;40.10;;;;;;5182454;28;20072;-76
2021/06/12 12:33:25;;;;;;;20.58;19.08;;;27.60;36.30;;;;;;5212384;28;20037;-75
2021/06/12 12:36:03;;;;;;;21.00;19.40;;;27.50;37.00;;;;;;5214615;28;20684;-75
2021/06/12 12:38:35;;;;;;;20.95;19.25;;;27.40;39.60;;;;;;5184243;28;20041;-75
2021/06/12 12:41:10;;;;;;;21.08;19.58;;;27.50;36.10;;;;;;5212159;28;20142;-75
2021/06/12 12:43:42;;;;;;;21.35;19.75;;;27.60;39.30;;;;;;5218216;28;20069;-75
2021/06/12 12:46:14;;;;;;;20.90;19.23;;;27.60;35.90;;;;;;5195407;28;20747;-75
2021/06/12 12:48:46;;;;;;;20.17;18.58;;;27.70;36.30;;;;;;5215226;28;20107;-75
2021/06/12 12:51:24;;;;;;;21.13;19.63;;;27.70;39.50;;;;;;5215007;28;20079;-75
2021/06/12 12:54:09;;;;;;;20.73;19.23;;;27.70;37.90;;;;;;5217125;28;20090;-75
2021/06/12 12:56:57;;;;;;;21.08;19.48;;;27.80;37.30;;;;;;5216592;28;20087;-75
2021/06/12 12:59:43;;;;;;;20.20;18.80;;;27.70;36.10;;;;;;5218396;28;20124;-76
2021/06/12 13:02:16;;;;;;;20.50;19.05;;;27.80;39.30;;;;;;5196956;28;20055;-76
2021/06/12 13:04:48;;;;;;;20.70;19.15;;;27.80;32.10;;;;;;5200438;28;20048;-76
2021/06/12 13:07:24;;;;;;;20.75;19.30;;;27.80;32.70;;;;;;5216081;28;20037;-76